ホノルル の空港の天気 - METARとTAF

ホノルル国際空港 ( PHNL / HNL ) - アメリカ ハワイ州ホノルル
飛行場実況気象(Metar)
観測時間06/17 13:53 HST (06/17 23:53 UTC)
風向・風速南 5m/s
視程10km以上
天気現象
少しの雲 雲底高度 730m
全天の4割程度の雲 雲底高度 1160m
全天の8割程度の雲 雲底高度 1460m
気温31.1℃
湿度57%
気圧1014.5hPa
METARPHNL 172353Z 18010KT 10SM FEW024 SCT038 BKN048 31/22 A2996 RMK AO2 SLP145 T03110217 10317 20261 58008
過去の天気等 Google飛行場航空写真 Wunderground天気予報

過去48時間のMETAR

飛行場予報(TAF)
発表時間: 6/17 13:45 HST (6/17 23:45 UTC)
予報対象時間: 17日14時 HST ~ 18日20時 HST
風向・風速南南東 4m/s
視程10km以上
少しの雲 雲底高度 760m
全天の8割程度の雲 雲底高度 1520m
17日17時 HST から
風向・風速東北東 6m/s
視程10km以上
少しの雲 雲底高度 760m
全天の8割程度の雲 雲底高度 1520m
17日19時 HST から
風向・風速東北東 4m/s
視程10km以上
少しの雲 雲底高度 760m
全天の4割程度の雲 雲底高度 1520m
18日10時 HST から
風向・風速東北東 6m/s 瞬間風速 9m/s
視程10km以上
少しの雲 雲底高度 910m
少しの雲 雲底高度 1520m
18日19時 HST から
風向・風速東北東 5m/s
視程10km以上
少しの雲 雲底高度 760m
少しの雲 雲底高度 1370m
PHNL 172345Z 1800/1906 16007KT P6SM FEW025 BKN050
FM180300 07012KT P6SM FEW025 BKN050
FM180500 07008KT P6SM FEW025 SCT050
FM182000 06012G18KT P6SM FEW030 FEW050
FM190500 06010KT P6SM FEW025 FEW045